sensor_id;sensor_type;location;lat;lon;timestamp;temperature;humidity
53782;DHT22;39692;53.114;7.060;2022-11-15T11:47:24;13.10;99.90
53782;DHT22;39692;53.114;7.060;2022-11-15T11:49:59;13.40;99.90
53782;DHT22;39692;53.114;7.060;2022-11-15T11:52:33;13.30;99.90
53782;DHT22;39692;53.114;7.060;2022-11-15T11:58:02;13.30;99.90
53782;DHT22;39692;53.114;7.060;2022-11-15T12:00:31;13.00;99.90
53782;DHT22;39692;53.114;7.060;2022-11-15T12:03:16;13.20;99.90
53782;DHT22;39692;53.114;7.060;2022-11-15T12:11:14;13.70;99.90
53782;DHT22;39692;53.114;7.060;2022-11-15T12:13:42;13.70;99.90
53782;DHT22;39692;53.114;7.060;2022-11-15T12:16:19;13.60;99.90
53782;DHT22;39692;53.114;7.060;2022-11-15T12:18:52;13.10;99.90
53782;DHT22;39692;53.114;7.060;2022-11-15T12:21:24;13.10;99.90
53782;DHT22;39692;53.114;7.060;2022-11-15T12:23:54;13.00;99.90
53782;DHT22;39692;53.114;7.060;2022-11-15T12:26:28;12.80;99.90
53782;DHT22;39692;53.114;7.060;2022-11-15T12:29:00;12.80;99.90
53782;DHT22;39692;53.114;7.060;2022-11-15T12:31:42;12.80;99.90
53782;DHT22;39692;53.114;7.060;2022-11-15T12:36:49;12.80;99.90
53782;DHT22;39692;53.114;7.060;2022-11-15T12:39:16;12.70;99.90
53782;DHT22;39692;53.114;7.060;2022-11-15T12:59:58;18.10;99.90
53782;DHT22;39692;53.114;7.060;2022-11-15T13:52:40;14.50;99.90
53782;DHT22;39692;53.114;7.060;2022-11-15T13:55:29;14.40;99.90
53782;DHT22;39692;53.114;7.060;2022-11-15T13:58:02;14.20;99.90
53782;DHT22;39692;53.114;7.060;2022-11-15T14:03:06;13.80;99.90
53782;DHT22;39692;53.114;7.060;2022-11-15T14:05:32;13.70;99.90
53782;DHT22;39692;53.114;7.060;2022-11-15T14:08:22;13.60;99.90
53782;DHT22;39692;53.114;7.060;2022-11-15T14:10:48;13.50;99.90
53782;DHT22;39692;53.114;7.060;2022-11-15T14:13:31;13.40;99.90
53782;DHT22;39692;53.114;7.060;2022-11-15T14:16:20;13.30;99.90
53782;DHT22;39692;53.114;7.060;2022-11-15T14:18:50;13.20;99.90
53782;DHT22;39692;53.114;7.060;2022-11-15T14:21:17;13.20;99.90
53782;DHT22;39692;53.114;7.060;2022-11-15T14:23:43;13.10;99.90
53782;DHT22;39692;53.114;7.060;2022-11-15T14:26:32;12.90;99.90
53782;DHT22;39692;53.114;7.060;2022-11-15T14:29:22;12.90;99.90
53782;DHT22;39692;53.114;7.060;2022-11-15T14:31:47;12.80;99.90
53782;DHT22;39692;53.114;7.060;2022-11-15T14:34:13;12.70;99.90
53782;DHT22;39692;53.114;7.060;2022-11-15T14:36:38;12.70;99.90
53782;DHT22;39692;53.114;7.060;2022-11-15T14:39:04;12.60;99.90
53782;DHT22;39692;53.114;7.060;2022-11-15T14:41:35;12.50;99.90
53782;DHT22;39692;53.114;7.060;2022-11-15T14:44:03;12.40;99.90
53782;DHT22;39692;53.114;7.060;2022-11-15T14:46:29;12.30;99.90
53782;DHT22;39692;53.114;7.060;2022-11-15T14:48:55;12.30;99.90
53782;DHT22;39692;53.114;7.060;2022-11-15T14:51:21;12.10;99.90
53782;DHT22;39692;53.114;7.060;2022-11-15T14:53:47;12.10;99.90
53782;DHT22;39692;53.114;7.060;2022-11-15T14:56:13;12.10;99.90
53782;DHT22;39692;53.114;7.060;2022-11-15T14:58:39;12.00;99.90
53782;DHT22;39692;53.114;7.060;2022-11-15T15:01:22;11.90;99.90
53782;DHT22;39692;53.114;7.060;2022-11-15T15:03:48;11.90;99.90
53782;DHT22;39692;53.114;7.060;2022-11-15T15:06:17;11.80;99.90
53782;DHT22;39692;53.114;7.060;2022-11-15T15:08:42;11.70;99.90
53782;DHT22;39692;53.114;7.060;2022-11-15T15:11:22;11.60;99.90
53782;DHT22;39692;53.114;7.060;2022-11-15T15:13:49;11.50;99.90
53782;DHT22;39692;53.114;7.060;2022-11-15T15:16:14;11.50;99.90
53782;DHT22;39692;53.114;7.060;2022-11-15T15:18:40;11.40;99.90
53782;DHT22;39692;53.114;7.060;2022-11-15T15:21:19;11.30;99.90
53782;DHT22;39692;53.114;7.060;2022-11-15T15:23:45;11.20;99.90
53782;DHT22;39692;53.114;7.060;2022-11-15T15:26:11;11.20;99.90
53782;DHT22;39692;53.114;7.060;2022-11-15T15:28:36;11.10;99.90
53782;DHT22;39692;53.114;7.060;2022-11-15T15:31:03;11.00;99.90
53782;DHT22;39692;53.114;7.060;2022-11-15T15:33:29;11.00;99.90
53782;DHT22;39692;53.114;7.060;2022-11-15T15:35:55;10.90;99.90
53782;DHT22;39692;53.114;7.060;2022-11-15T15:38:21;10.80;99.90
53782;DHT22;39692;53.114;7.060;2022-11-15T15:40:47;10.70;99.90
53782;DHT22;39692;53.114;7.060;2022-11-15T15:43:12;10.70;99.90
53782;DHT22;39692;53.114;7.060;2022-11-15T15:45:39;10.70;99.90
53782;DHT22;39692;53.114;7.060;2022-11-15T15:48:07;10.60;99.90
53782;DHT22;39692;53.114;7.060;2022-11-15T15:50:34;10.60;99.90
53782;DHT22;39692;53.114;7.060;2022-11-15T15:53:02;10.50;99.90
53782;DHT22;39692;53.114;7.060;2022-11-15T15:55:28;10.50;99.90
